sensor_id;sensor_type;location;lat;lon;timestamp;P1;durP1;ratioP1;P2;durP2;ratioP2
11771;SDS011;12556;55.748;13.194;2023-05-28T00:01:57;13.20;;;5.50;;
11771;SDS011;12556;55.748;13.194;2023-05-28T00:04:24;10.70;;;4.80;;
11771;SDS011;12556;55.748;13.194;2023-05-28T00:06:51;15.13;;;5.87;;
11771;SDS011;12556;55.748;13.194;2023-05-28T00:09:20;12.83;;;5.07;;
11771;SDS011;12556;55.748;13.194;2023-05-28T00:11:49;11.30;;;4.80;;
11771;SDS011;12556;55.748;13.194;2023-05-28T00:14:16;13.13;;;4.80;;
11771;SDS011;12556;55.748;13.194;2023-05-28T00:16:42;12.23;;;4.80;;
11771;SDS011;12556;55.748;13.194;2023-05-28T00:19:10;14.60;;;4.77;;
11771;SDS011;12556;55.748;13.194;2023-05-28T00:21:37;14.50;;;5.30;;
11771;SDS011;12556;55.748;13.194;2023-05-28T00:24:04;14.23;;;5.20;;
11771;SDS011;12556;55.748;13.194;2023-05-28T00:26:31;14.40;;;5.37;;
11771;SDS011;12556;55.748;13.194;2023-05-28T00:29:00;10.03;;;4.57;;
11771;SDS011;12556;55.748;13.194;2023-05-28T00:31:26;14.63;;;6.17;;
11771;SDS011;12556;55.748;13.194;2023-05-28T00:33:53;13.43;;;5.07;;
11771;SDS011;12556;55.748;13.194;2023-05-28T00:36:21;13.73;;;5.00;;
11771;SDS011;12556;55.748;13.194;2023-05-28T00:38:48;15.57;;;6.50;;
11771;SDS011;12556;55.748;13.194;2023-05-28T00:41:18;12.30;;;5.30;;
11771;SDS011;12556;55.748;13.194;2023-05-28T00:43:45;12.40;;;5.80;;
11771;SDS011;12556;55.748;13.194;2023-05-28T00:46:14;12.90;;;5.50;;
11771;SDS011;12556;55.748;13.194;2023-05-28T00:48:44;11.80;;;4.60;;
11771;SDS011;12556;55.748;13.194;2023-05-28T00:51:12;15.57;;;5.70;;
11771;SDS011;12556;55.748;13.194;2023-05-28T00:53:40;13.50;;;5.50;;
11771;SDS011;12556;55.748;13.194;2023-05-28T00:56:07;14.20;;;5.20;;
11771;SDS011;12556;55.748;13.194;2023-05-28T00:58:36;13.17;;;5.07;;
11771;SDS011;12556;55.748;13.194;2023-05-28T01:01:05;15.30;;;5.50;;
11771;SDS011;12556;55.748;13.194;2023-05-28T01:03:34;13.60;;;5.23;;
11771;SDS011;12556;55.748;13.194;2023-05-28T01:06:03;12.33;;;5.70;;
11771;SDS011;12556;55.748;13.194;2023-05-28T01:08:31;13.60;;;4.97;;
11771;SDS011;12556;55.748;13.194;2023-05-28T01:10:59;12.60;;;5.93;;
11771;SDS011;12556;55.748;13.194;2023-05-28T01:13:26;14.93;;;5.93;;
11771;SDS011;12556;55.748;13.194;2023-05-28T01:15:53;17.60;;;5.90;;
11771;SDS011;12556;55.748;13.194;2023-05-28T01:18:21;16.50;;;6.60;;
11771;SDS011;12556;55.748;13.194;2023-05-28T01:20:51;14.10;;;6.03;;
11771;SDS011;12556;55.748;13.194;2023-05-28T01:23:18;13.10;;;5.97;;
11771;SDS011;12556;55.748;13.194;2023-05-28T01:25:50;14.20;;;5.50;;
11771;SDS011;12556;55.748;13.194;2023-05-28T01:28:19;12.90;;;5.90;;
11771;SDS011;12556;55.748;13.194;2023-05-28T01:30:46;13.00;;;5.83;;
11771;SDS011;12556;55.748;13.194;2023-05-28T01:33:13;15.70;;;5.90;;
11771;SDS011;12556;55.748;13.194;2023-05-28T01:35:41;14.37;;;5.63;;
11771;SDS011;12556;55.748;13.194;2023-05-28T01:38:09;12.10;;;5.80;;
11771;SDS011;12556;55.748;13.194;2023-05-28T01:40:38;19.13;;;6.00;;
11771;SDS011;12556;55.748;13.194;2023-05-28T01:43:09;16.57;;;5.87;;
11771;SDS011;12556;55.748;13.194;2023-05-28T01:45:36;14.10;;;6.23;;
11771;SDS011;12556;55.748;13.194;2023-05-28T01:48:04;14.70;;;6.03;;
11771;SDS011;12556;55.748;13.194;2023-05-28T01:50:32;13.27;;;5.87;;
11771;SDS011;12556;55.748;13.194;2023-05-28T01:52:59;19.13;;;6.13;;
11771;SDS011;12556;55.748;13.194;2023-05-28T01:55:26;14.33;;;6.27;;
11771;SDS011;12556;55.748;13.194;2023-05-28T01:57:52;15.00;;;6.17;;
11771;SDS011;12556;55.748;13.194;2023-05-28T02:00:22;14.37;;;6.17;;
11771;SDS011;12556;55.748;13.194;2023-05-28T02:02:49;16.00;;;5.83;;
11771;SDS011;12556;55.748;13.194;2023-05-28T02:05:17;13.33;;;5.73;;
11771;SDS011;12556;55.748;13.194;2023-05-28T02:07:44;13.33;;;6.40;;
11771;SDS011;12556;55.748;13.194;2023-05-28T02:10:11;18.37;;;5.87;;
11771;SDS011;12556;55.748;13.194;2023-05-28T02:12:38;16.27;;;5.90;;
11771;SDS011;12556;55.748;13.194;2023-05-28T02:15:05;13.77;;;6.03;;
11771;SDS011;12556;55.748;13.194;2023-05-28T02:17:34;15.23;;;6.40;;
11771;SDS011;12556;55.748;13.194;2023-05-28T02:20:01;14.77;;;5.73;;
11771;SDS011;12556;55.748;13.194;2023-05-28T02:22:29;15.57;;;6.03;;
11771;SDS011;12556;55.748;13.194;2023-05-28T02:24:56;15.40;;;6.00;;
11771;SDS011;12556;55.748;13.194;2023-05-28T02:27:23;16.90;;;6.37;;
11771;SDS011;12556;55.748;13.194;2023-05-28T02:29:50;13.80;;;6.90;;
11771;SDS011;12556;55.748;13.194;2023-05-28T02:32:16;15.67;;;5.93;;
11771;SDS011;12556;55.748;13.194;2023-05-28T02:34:45;13.33;;;5.83;;
11771;SDS011;12556;55.748;13.194;2023-05-28T02:37:11;14.63;;;5.77;;
11771;SDS011;12556;55.748;13.194;2023-05-28T02:39:38;16.33;;;6.37;;
11771;SDS011;12556;55.748;13.194;2023-05-28T02:42:06;14.33;;;5.37;;
11771;SDS011;12556;55.748;13.194;2023-05-28T02:44:33;11.43;;;5.33;;
11771;SDS011;12556;55.748;13.194;2023-05-28T02:47:00;11.67;;;5.80;;
11771;SDS011;12556;55.748;13.194;2023-05-28T02:49:26;13.20;;;5.50;;
11771;SDS011;12556;55.748;13.194;2023-05-28T02:51:55;12.10;;;5.53;;
11771;SDS011;12556;55.748;13.194;2023-05-28T02:54:22;14.50;;;5.83;;
11771;SDS011;12556;55.748;13.194;2023-05-28T02:56:49;12.37;;;5.63;;
11771;SDS011;12556;55.748;13.194;2023-05-28T02:59:17;10.20;;;5.63;;
11771;SDS011;12556;55.748;13.194;2023-05-28T03:01:44;14.60;;;6.20;;
11771;SDS011;12556;55.748;13.194;2023-05-28T03:04:11;22.50;;;6.67;;
11771;SDS011;12556;55.748;13.194;2023-05-28T03:06:38;16.50;;;6.63;;
11771;SDS011;12556;55.748;13.194;2023-05-28T03:09:07;13.07;;;5.63;;
11771;SDS011;12556;55.748;13.194;2023-05-28T03:11:34;16.30;;;6.20;;
11771;SDS011;12556;55.748;13.194;2023-05-28T03:14:01;13.73;;;5.20;;
11771;SDS011;12556;55.748;13.194;2023-05-28T03:16:28;17.13;;;6.50;;
11771;SDS011;12556;55.748;13.194;2023-05-28T03:18:57;17.23;;;6.47;;
11771;SDS011;12556;55.748;13.194;2023-05-28T03:21:25;18.43;;;6.57;;
11771;SDS011;12556;55.748;13.194;2023-05-28T03:23:51;12.70;;;7.03;;
11771;SDS011;12556;55.748;13.194;2023-05-28T03:26:20;15.67;;;5.73;;
11771;SDS011;12556;55.748;13.194;2023-05-28T03:28:47;14.77;;;5.97;;
11771;SDS011;12556;55.748;13.194;2023-05-28T03:31:14;11.50;;;5.83;;
11771;SDS011;12556;55.748;13.194;2023-05-28T03:33:41;15.50;;;6.17;;
11771;SDS011;12556;55.748;13.194;2023-05-28T03:36:08;12.20;;;5.97;;
11771;SDS011;12556;55.748;13.194;2023-05-28T03:38:35;16.47;;;6.13;;
11771;SDS011;12556;55.748;13.194;2023-05-28T03:41:02;11.50;;;5.20;;
11771;SDS011;12556;55.748;13.194;2023-05-28T03:43:31;13.33;;;5.10;;
11771;SDS011;12556;55.748;13.194;2023-05-28T03:46:00;11.70;;;5.93;;
11771;SDS011;12556;55.748;13.194;2023-05-28T03:48:27;8.37;;;5.47;;
11771;SDS011;12556;55.748;13.194;2023-05-28T03:50:54;14.50;;;6.03;;
11771;SDS011;12556;55.748;13.194;2023-05-28T03:53:21;16.13;;;5.90;;
11771;SDS011;12556;55.748;13.194;2023-05-28T03:55:47;12.77;;;6.03;;
11771;SDS011;12556;55.748;13.194;2023-05-28T03:58:16;14.00;;;6.03;;
11771;SDS011;12556;55.748;13.194;2023-05-28T04:00:45;13.40;;;6.23;;
11771;SDS011;12556;55.748;13.194;2023-05-28T04:03:11;11.03;;;5.80;;
11771;SDS011;12556;55.748;13.194;2023-05-28T04:05:38;9.77;;;5.30;;
11771;SDS011;12556;55.748;13.194;2023-05-28T04:08:06;10.93;;;5.63;;
11771;SDS011;12556;55.748;13.194;2023-05-28T04:10:33;12.80;;;5.70;;
11771;SDS011;12556;55.748;13.194;2023-05-28T04:13:00;16.13;;;5.97;;
11771;SDS011;12556;55.748;13.194;2023-05-28T04:15:27;12.93;;;6.00;;
11771;SDS011;12556;55.748;13.194;2023-05-28T04:17:55;10.37;;;6.00;;
11771;SDS011;12556;55.748;13.194;2023-05-28T04:20:22;10.87;;;6.17;;
11771;SDS011;12556;55.748;13.194;2023-05-28T04:22:48;9.27;;;5.73;;
11771;SDS011;12556;55.748;13.194;2023-05-28T04:25:16;10.20;;;5.80;;
11771;SDS011;12556;55.748;13.194;2023-05-28T04:27:43;11.83;;;5.80;;
11771;SDS011;12556;55.748;13.194;2023-05-28T04:30:11;10.27;;;5.57;;
11771;SDS011;12556;55.748;13.194;2023-05-28T04:32:38;10.93;;;5.57;;
11771;SDS011;12556;55.748;13.194;2023-05-28T04:35:07;12.90;;;5.30;;
11771;SDS011;12556;55.748;13.194;2023-05-28T04:37:34;11.40;;;6.20;;
11771;SDS011;12556;55.748;13.194;2023-05-28T04:40:02;12.10;;;5.70;;
11771;SDS011;12556;55.748;13.194;2023-05-28T04:42:29;11.57;;;5.47;;
11771;SDS011;12556;55.748;13.194;2023-05-28T04:44:56;9.67;;;5.90;;
11771;SDS011;12556;55.748;13.194;2023-05-28T04:47:24;12.00;;;5.63;;
11771;SDS011;12556;55.748;13.194;2023-05-28T04:49:52;12.00;;;5.57;;
11771;SDS011;12556;55.748;13.194;2023-05-28T04:52:23;12.00;;;6.33;;
11771;SDS011;12556;55.748;13.194;2023-05-28T04:54:50;12.93;;;6.33;;
11771;SDS011;12556;55.748;13.194;2023-05-28T04:57:17;9.70;;;5.30;;
11771;SDS011;12556;55.748;13.194;2023-05-28T04:59:45;11.87;;;5.60;;
11771;SDS011;12556;55.748;13.194;2023-05-28T05:02:12;13.53;;;6.27;;
11771;SDS011;12556;55.748;13.194;2023-05-28T05:04:42;6.47;;;4.57;;
11771;SDS011;12556;55.748;13.194;2023-05-28T05:07:08;10.40;;;5.20;;
11771;SDS011;12556;55.748;13.194;2023-05-28T05:09:37;8.40;;;4.67;;
11771;SDS011;12556;55.748;13.194;2023-05-28T05:12:04;11.13;;;5.27;;
11771;SDS011;12556;55.748;13.194;2023-05-28T05:14:32;6.73;;;4.30;;
11771;SDS011;12556;55.748;13.194;2023-05-28T05:16:59;7.80;;;4.77;;
11771;SDS011;12556;55.748;13.194;2023-05-28T05:19:27;7.73;;;5.10;;
11771;SDS011;12556;55.748;13.194;2023-05-28T05:21:54;7.90;;;4.50;;
11771;SDS011;12556;55.748;13.194;2023-05-28T05:24:21;7.90;;;4.80;;
11771;SDS011;12556;55.748;13.194;2023-05-28T05:26:49;9.53;;;4.93;;
11771;SDS011;12556;55.748;13.194;2023-05-28T05:29:16;11.20;;;5.20;;
11771;SDS011;12556;55.748;13.194;2023-05-28T05:31:43;9.40;;;5.07;;
11771;SDS011;12556;55.748;13.194;2023-05-28T05:34:10;10.07;;;4.27;;
11771;SDS011;12556;55.748;13.194;2023-05-28T05:36:37;8.33;;;4.50;;
11771;SDS011;12556;55.748;13.194;2023-05-28T05:39:03;8.93;;;4.60;;
11771;SDS011;12556;55.748;13.194;2023-05-28T05:41:30;10.43;;;4.73;;
11771;SDS011;12556;55.748;13.194;2023-05-28T05:43:58;9.43;;;4.10;;
11771;SDS011;12556;55.748;13.194;2023-05-28T05:46:25;10.93;;;4.70;;
11771;SDS011;12556;55.748;13.194;2023-05-28T05:48:52;8.50;;;4.43;;
11771;SDS011;12556;55.748;13.194;2023-05-28T05:51:19;9.90;;;4.43;;
11771;SDS011;12556;55.748;13.194;2023-05-28T05:53:46;9.73;;;4.37;;
11771;SDS011;12556;55.748;13.194;2023-05-28T05:56:13;7.97;;;4.10;;
11771;SDS011;12556;55.748;13.194;2023-05-28T05:58:40;9.17;;;4.10;;
11771;SDS011;12556;55.748;13.194;2023-05-28T06:01:09;8.30;;;4.07;;
11771;SDS011;12556;55.748;13.194;2023-05-28T06:03:36;9.57;;;4.43;;
11771;SDS011;12556;55.748;13.194;2023-05-28T06:06:03;6.93;;;4.47;;
11771;SDS011;12556;55.748;13.194;2023-05-28T06:08:32;12.70;;;4.23;;
11771;SDS011;12556;55.748;13.194;2023-05-28T06:10:59;6.90;;;4.30;;
11771;SDS011;12556;55.748;13.194;2023-05-28T06:13:26;5.83;;;3.80;;
11771;SDS011;12556;55.748;13.194;2023-05-28T06:15:52;11.23;;;4.60;;
11771;SDS011;12556;55.748;13.194;2023-05-28T06:18:21;10.70;;;4.07;;
11771;SDS011;12556;55.748;13.194;2023-05-28T06:20:48;8.17;;;4.07;;
11771;SDS011;12556;55.748;13.194;2023-05-28T06:23:15;7.57;;;3.80;;
11771;SDS011;12556;55.748;13.194;2023-05-28T06:25:42;7.83;;;3.40;;
11771;SDS011;12556;55.748;13.194;2023-05-28T06:28:10;8.90;;;4.07;;
11771;SDS011;12556;55.748;13.194;2023-05-28T06:30:37;6.97;;;3.80;;
11771;SDS011;12556;55.748;13.194;2023-05-28T06:33:05;10.33;;;3.70;;
11771;SDS011;12556;55.748;13.194;2023-05-28T06:35:34;7.07;;;3.63;;
11771;SDS011;12556;55.748;13.194;2023-05-28T06:38:01;6.67;;;3.43;;
11771;SDS011;12556;55.748;13.194;2023-05-28T06:40:28;6.70;;;3.53;;
11771;SDS011;12556;55.748;13.194;2023-05-28T06:42:55;7.40;;;3.87;;
11771;SDS011;12556;55.748;13.194;2023-05-28T06:45:24;6.20;;;3.27;;
11771;SDS011;12556;55.748;13.194;2023-05-28T06:47:51;8.03;;;3.40;;
11771;SDS011;12556;55.748;13.194;2023-05-28T06:50:17;5.70;;;3.17;;
11771;SDS011;12556;55.748;13.194;2023-05-28T06:52:46;7.47;;;3.37;;
11771;SDS011;12556;55.748;13.194;2023-05-28T06:55:12;6.67;;;3.53;;
11771;SDS011;12556;55.748;13.194;2023-05-28T06:57:40;6.57;;;3.67;;
11771;SDS011;12556;55.748;13.194;2023-05-28T07:00:07;6.63;;;3.10;;
11771;SDS011;12556;55.748;13.194;2023-05-28T07:02:39;5.47;;;3.57;;
11771;SDS011;12556;55.748;13.194;2023-05-28T07:05:06;8.07;;;3.57;;
11771;SDS011;12556;55.748;13.194;2023-05-28T07:07:34;5.30;;;2.60;;
11771;SDS011;12556;55.748;13.194;2023-05-28T07:10:03;4.70;;;2.67;;
11771;SDS011;12556;55.748;13.194;2023-05-28T07:12:31;4.50;;;3.00;;
11771;SDS011;12556;55.748;13.194;2023-05-28T07:14:58;3.58;;;3.00;;
11771;SDS011;12556;55.748;13.194;2023-05-28T07:17:25;7.07;;;3.40;;
11771;SDS011;12556;55.748;13.194;2023-05-28T07:19:51;5.15;;;3.05;;
11771;SDS011;12556;55.748;13.194;2023-05-28T07:22:18;6.55;;;3.25;;
11771;SDS011;12556;55.748;13.194;2023-05-28T07:24:45;4.53;;;3.50;;
11771;SDS011;12556;55.748;13.194;2023-05-28T07:27:13;7.25;;;3.95;;
11771;SDS011;12556;55.748;13.194;2023-05-28T07:29:40;8.05;;;3.90;;
11771;SDS011;12556;55.748;13.194;2023-05-28T07:32:07;5.70;;;3.40;;
11771;SDS011;12556;55.748;13.194;2023-05-28T07:34:34;9.45;;;3.83;;
11771;SDS011;12556;55.748;13.194;2023-05-28T07:37:01;7.78;;;3.40;;
11771;SDS011;12556;55.748;13.194;2023-05-28T07:39:28;6.50;;;3.53;;
11771;SDS011;12556;55.748;13.194;2023-05-28T07:41:55;8.77;;;3.40;;
11771;SDS011;12556;55.748;13.194;2023-05-28T07:44:23;7.82;;;3.03;;
11771;SDS011;12556;55.748;13.194;2023-05-28T07:46:50;5.47;;;3.33;;
11771;SDS011;12556;55.748;13.194;2023-05-28T07:49:17;5.30;;;2.97;;
11771;SDS011;12556;55.748;13.194;2023-05-28T07:51:44;5.68;;;3.03;;
11771;SDS011;12556;55.748;13.194;2023-05-28T07:54:12;6.60;;;3.03;;
11771;SDS011;12556;55.748;13.194;2023-05-28T07:56:38;4.78;;;3.33;;
11771;SDS011;12556;55.748;13.194;2023-05-28T07:59:06;7.33;;;3.07;;
11771;SDS011;12556;55.748;13.194;2023-05-28T08:01:34;5.57;;;3.35;;
11771;SDS011;12556;55.748;13.194;2023-05-28T08:04:01;5.68;;;3.15;;
11771;SDS011;12556;55.748;13.194;2023-05-28T08:06:28;6.13;;;3.38;;
11771;SDS011;12556;55.748;13.194;2023-05-28T08:08:56;6.25;;;3.80;;
11771;SDS011;12556;55.748;13.194;2023-05-28T08:11:23;7.25;;;3.28;;
11771;SDS011;12556;55.748;13.194;2023-05-28T08:13:50;9.32;;;3.95;;
11771;SDS011;12556;55.748;13.194;2023-05-28T08:16:17;6.18;;;3.92;;
11771;SDS011;12556;55.748;13.194;2023-05-28T08:18:45;6.00;;;3.55;;
11771;SDS011;12556;55.748;13.194;2023-05-28T08:21:12;6.10;;;3.28;;
11771;SDS011;12556;55.748;13.194;2023-05-28T08:23:40;5.05;;;2.97;;
11771;SDS011;12556;55.748;13.194;2023-05-28T08:26:07;4.97;;;2.75;;
11771;SDS011;12556;55.748;13.194;2023-05-28T08:28:33;9.20;;;3.03;;
11771;SDS011;12556;55.748;13.194;2023-05-28T08:31:00;7.72;;;3.10;;
11771;SDS011;12556;55.748;13.194;2023-05-28T08:33:27;5.70;;;3.00;;
11771;SDS011;12556;55.748;13.194;2023-05-28T08:35:56;4.25;;;2.80;;
11771;SDS011;12556;55.748;13.194;2023-05-28T08:38:22;7.30;;;3.15;;
11771;SDS011;12556;55.748;13.194;2023-05-28T08:40:49;5.15;;;2.65;;
11771;SDS011;12556;55.748;13.194;2023-05-28T08:43:20;5.05;;;2.42;;
11771;SDS011;12556;55.748;13.194;2023-05-28T08:45:49;3.08;;;2.38;;
11771;SDS011;12556;55.748;13.194;2023-05-28T08:48:18;6.88;;;2.90;;
11771;SDS011;12556;55.748;13.194;2023-05-28T08:50:46;5.88;;;3.00;;
11771;SDS011;12556;55.748;13.194;2023-05-28T08:53:19;7.97;;;3.30;;
11771;SDS011;12556;55.748;13.194;2023-05-28T08:55:47;6.57;;;3.45;;
11771;SDS011;12556;55.748;13.194;2023-05-28T08:58:14;3.78;;;3.17;;
11771;SDS011;12556;55.748;13.194;2023-05-28T09:00:42;4.82;;;3.22;;
11771;SDS011;12556;55.748;13.194;2023-05-28T09:03:10;4.43;;;3.30;;
11771;SDS011;12556;55.748;13.194;2023-05-28T09:05:37;5.15;;;3.45;;
11771;SDS011;12556;55.748;13.194;2023-05-28T09:08:05;6.80;;;6.20;;
11771;SDS011;12556;55.748;13.194;2023-05-28T09:10:34;6.80;;;6.20;;
11771;SDS011;12556;55.748;13.194;2023-05-28T09:13:01;5.43;;;4.80;;
11771;SDS011;12556;55.748;13.194;2023-05-28T09:15:29;11.40;;;10.77;;
11771;SDS011;12556;55.748;13.194;2023-05-28T09:17:58;14.23;;;13.23;;
11771;SDS011;12556;55.748;13.194;2023-05-28T09:20:25;8.88;;;8.20;;
11771;SDS011;12556;55.748;13.194;2023-05-28T09:22:59;20.20;;;19.27;;
11771;SDS011;12556;55.748;13.194;2023-05-28T09:25:28;13.60;;;12.75;;
11771;SDS011;12556;55.748;13.194;2023-05-28T09:27:59;14.48;;;13.65;;
11771;SDS011;12556;55.748;13.194;2023-05-28T09:30:26;15.40;;;14.48;;
11771;SDS011;12556;55.748;13.194;2023-05-28T09:33:00;21.95;;;20.65;;
11771;SDS011;12556;55.748;13.194;2023-05-28T09:35:28;12.70;;;11.75;;
11771;SDS011;12556;55.748;13.194;2023-05-28T09:37:59;17.50;;;16.23;;
11771;SDS011;12556;55.748;13.194;2023-05-28T09:40:26;9.43;;;8.65;;
11771;SDS011;12556;55.748;13.194;2023-05-28T09:42:53;12.82;;;12.13;;
11771;SDS011;12556;55.748;13.194;2023-05-28T09:45:22;13.98;;;13.23;;
11771;SDS011;12556;55.748;13.194;2023-05-28T09:47:50;14.18;;;13.40;;
11771;SDS011;12556;55.748;13.194;2023-05-28T09:50:17;30.20;;;28.80;;
11771;SDS011;12556;55.748;13.194;2023-05-28T09:52:45;26.27;;;25.02;;
11771;SDS011;12556;55.748;13.194;2023-05-28T09:55:13;19.08;;;18.02;;
11771;SDS011;12556;55.748;13.194;2023-05-28T09:57:44;16.85;;;15.77;;
11771;SDS011;12556;55.748;13.194;2023-05-28T10:00:13;27.98;;;26.65;;
11771;SDS011;12556;55.748;13.194;2023-05-28T10:02:53;25.92;;;24.70;;
11771;SDS011;12556;55.748;13.194;2023-05-28T10:05:28;20.77;;;19.75;;
11771;SDS011;12556;55.748;13.194;2023-05-28T10:07:59;33.90;;;32.42;;
11771;SDS011;12556;55.748;13.194;2023-05-28T10:10:27;20.83;;;19.88;;
11771;SDS011;12556;55.748;13.194;2023-05-28T10:12:56;35.25;;;33.78;;
11771;SDS011;12556;55.748;13.194;2023-05-28T10:15:24;29.45;;;28.05;;
11771;SDS011;12556;55.748;13.194;2023-05-28T10:17:53;22.10;;;21.05;;
11771;SDS011;12556;55.748;13.194;2023-05-28T10:20:21;43.53;;;41.65;;
11771;SDS011;12556;55.748;13.194;2023-05-28T10:22:48;39.03;;;37.35;;
11771;SDS011;12556;55.748;13.194;2023-05-28T10:25:15;43.97;;;42.15;;
11771;SDS011;12556;55.748;13.194;2023-05-28T10:27:43;46.17;;;44.42;;
11771;SDS011;12556;55.748;13.194;2023-05-28T10:30:14;65.95;;;63.45;;
11771;SDS011;12556;55.748;13.194;2023-05-28T10:32:58;52.03;;;49.90;;
11771;SDS011;12556;55.748;13.194;2023-05-28T10:35:26;55.25;;;53.08;;
11771;SDS011;12556;55.748;13.194;2023-05-28T10:38:01;66.50;;;63.90;;
11771;SDS011;12556;55.748;13.194;2023-05-28T10:40:29;83.40;;;80.07;;
11771;SDS011;12556;55.748;13.194;2023-05-28T10:42:59;90.95;;;87.55;;
11771;SDS011;12556;55.748;13.194;2023-05-28T10:45:33;69.65;;;66.85;;
11771;SDS011;12556;55.748;13.194;2023-05-28T10:48:02;109.70;;;105.63;;
11771;SDS011;12556;55.748;13.194;2023-05-28T10:50:30;83.03;;;79.90;;
11771;SDS011;12556;55.748;13.194;2023-05-28T10:53:03;77.85;;;74.75;;
11771;SDS011;12556;55.748;13.194;2023-05-28T10:55:47;80.30;;;77.10;;
11771;SDS011;12556;55.748;13.194;2023-05-28T10:58:25;67.55;;;64.90;;
11771;SDS011;12556;55.748;13.194;2023-05-28T11:00:52;95.65;;;91.85;;
11771;SDS011;12556;55.748;13.194;2023-05-28T11:03:39;81.57;;;78.35;;
11771;SDS011;12556;55.748;13.194;2023-05-28T11:06:10;82.93;;;79.78;;
11771;SDS011;12556;55.748;13.194;2023-05-28T11:08:38;60.88;;;58.47;;
11771;SDS011;12556;55.748;13.194;2023-05-28T11:11:06;88.53;;;85.18;;
11771;SDS011;12556;55.748;13.194;2023-05-28T11:13:33;76.07;;;73.22;;
11771;SDS011;12556;55.748;13.194;2023-05-28T11:16:07;69.50;;;66.82;;
11771;SDS011;12556;55.748;13.194;2023-05-28T11:18:35;47.92;;;46.00;;
11771;SDS011;12556;55.748;13.194;2023-05-28T11:21:03;39.83;;;38.17;;
11771;SDS011;12556;55.748;13.194;2023-05-28T11:23:32;44.47;;;42.75;;
11771;SDS011;12556;55.748;13.194;2023-05-28T11:26:01;38.70;;;37.03;;
11771;SDS011;12556;55.748;13.194;2023-05-28T11:28:28;42.10;;;40.38;;
11771;SDS011;12556;55.748;13.194;2023-05-28T11:30:55;42.25;;;40.45;;
11771;SDS011;12556;55.748;13.194;2023-05-28T11:33:26;29.45;;;28.17;;
11771;SDS011;12556;55.748;13.194;2023-05-28T11:35:57;30.55;;;29.08;;
11771;SDS011;12556;55.748;13.194;2023-05-28T11:38:26;34.10;;;32.75;;
11771;SDS011;12556;55.748;13.194;2023-05-28T11:40:59;26.13;;;25.15;;
11771;SDS011;12556;55.748;13.194;2023-05-28T11:43:27;24.80;;;23.67;;
11771;SDS011;12556;55.748;13.194;2023-05-28T11:45:56;16.75;;;16.02;;
11771;SDS011;12556;55.748;13.194;2023-05-28T11:48:24;31.80;;;30.45;;
11771;SDS011;12556;55.748;13.194;2023-05-28T11:51:01;22.35;;;21.48;;
11771;SDS011;12556;55.748;13.194;2023-05-28T11:53:38;26.50;;;25.45;;
11771;SDS011;12556;55.748;13.194;2023-05-28T11:56:06;27.77;;;26.65;;
11771;SDS011;12556;55.748;13.194;2023-05-28T11:58:34;23.77;;;22.85;;
11771;SDS011;12556;55.748;13.194;2023-05-28T12:01:05;24.75;;;23.75;;
11771;SDS011;12556;55.748;13.194;2023-05-28T12:03:32;30.15;;;29.00;;
11771;SDS011;12556;55.748;13.194;2023-05-28T12:05:59;30.05;;;28.85;;
11771;SDS011;12556;55.748;13.194;2023-05-28T12:08:26;29.83;;;28.60;;
11771;SDS011;12556;55.748;13.194;2023-05-28T12:11:00;36.63;;;35.15;;
11771;SDS011;12556;55.748;13.194;2023-05-28T12:13:31;39.95;;;38.38;;
11771;SDS011;12556;55.748;13.194;2023-05-28T12:16:06;33.83;;;32.40;;
11771;SDS011;12556;55.748;13.194;2023-05-28T12:18:34;46.00;;;44.20;;
11771;SDS011;12556;55.748;13.194;2023-05-28T12:21:09;50.80;;;48.88;;
11771;SDS011;12556;55.748;13.194;2023-05-28T12:23:36;64.20;;;61.72;;
11771;SDS011;12556;55.748;13.194;2023-05-28T12:26:08;63.03;;;60.65;;
11771;SDS011;12556;55.748;13.194;2023-05-28T12:28:36;60.47;;;58.08;;
11771;SDS011;12556;55.748;13.194;2023-05-28T12:31:05;72.40;;;69.72;;
11771;SDS011;12556;55.748;13.194;2023-05-28T12:33:32;86.18;;;83.00;;
11771;SDS011;12556;55.748;13.194;2023-05-28T12:35:59;90.28;;;86.60;;
11771;SDS011;12556;55.748;13.194;2023-05-28T12:38:26;79.38;;;76.53;;
11771;SDS011;12556;55.748;13.194;2023-05-28T12:40:53;102.00;;;98.13;;
11771;SDS011;12556;55.748;13.194;2023-05-28T12:43:21;102.28;;;98.28;;
11771;SDS011;12556;55.748;13.194;2023-05-28T12:45:48;100.28;;;96.57;;
11771;SDS011;12556;55.748;13.194;2023-05-28T12:48:15;91.40;;;87.97;;
11771;SDS011;12556;55.748;13.194;2023-05-28T12:50:42;71.15;;;68.45;;
11771;SDS011;12556;55.748;13.194;2023-05-28T12:53:09;106.03;;;102.18;;
11771;SDS011;12556;55.748;13.194;2023-05-28T12:55:36;94.13;;;90.82;;
11771;SDS011;12556;55.748;13.194;2023-05-28T12:58:03;113.40;;;109.25;;
11771;SDS011;12556;55.748;13.194;2023-05-28T13:00:31;121.18;;;116.78;;
11771;SDS011;12556;55.748;13.194;2023-05-28T13:02:58;97.10;;;93.30;;
11771;SDS011;12556;55.748;13.194;2023-05-28T13:05:27;111.68;;;107.65;;
11771;SDS011;12556;55.748;13.194;2023-05-28T13:07:54;100.40;;;96.68;;
11771;SDS011;12556;55.748;13.194;2023-05-28T13:10:21;96.20;;;92.35;;
11771;SDS011;12556;55.748;13.194;2023-05-28T13:12:49;118.10;;;113.70;;
11771;SDS011;12556;55.748;13.194;2023-05-28T13:15:16;93.15;;;89.68;;
11771;SDS011;12556;55.748;13.194;2023-05-28T13:17:44;124.80;;;120.25;;
11771;SDS011;12556;55.748;13.194;2023-05-28T13:20:11;82.25;;;79.15;;
11771;SDS011;12556;55.748;13.194;2023-05-28T13:22:38;113.22;;;108.82;;
11771;SDS011;12556;55.748;13.194;2023-05-28T13:25:06;81.68;;;78.65;;
11771;SDS011;12556;55.748;13.194;2023-05-28T13:27:34;83.63;;;80.30;;
11771;SDS011;12556;55.748;13.194;2023-05-28T13:30:01;60.13;;;57.92;;
11771;SDS011;12556;55.748;13.194;2023-05-28T13:32:28;83.03;;;80.00;;
11771;SDS011;12556;55.748;13.194;2023-05-28T13:34:56;70.20;;;67.40;;
11771;SDS011;12556;55.748;13.194;2023-05-28T13:37:23;74.82;;;72.00;;
11771;SDS011;12556;55.748;13.194;2023-05-28T13:39:51;82.15;;;78.90;;
11771;SDS011;12556;55.748;13.194;2023-05-28T13:42:18;68.90;;;66.25;;
11771;SDS011;12556;55.748;13.194;2023-05-28T13:44:46;96.15;;;92.57;;
11771;SDS011;12556;55.748;13.194;2023-05-28T13:47:13;105.03;;;100.85;;
11771;SDS011;12556;55.748;13.194;2023-05-28T13:49:42;89.70;;;86.32;;
11771;SDS011;12556;55.748;13.194;2023-05-28T13:52:10;84.32;;;80.97;;
11771;SDS011;12556;55.748;13.194;2023-05-28T13:54:37;69.65;;;66.90;;
11771;SDS011;12556;55.748;13.194;2023-05-28T13:57:06;95.78;;;92.07;;
11771;SDS011;12556;55.748;13.194;2023-05-28T13:59:33;99.55;;;95.88;;
11771;SDS011;12556;55.748;13.194;2023-05-28T14:01:59;93.88;;;90.07;;
11771;SDS011;12556;55.748;13.194;2023-05-28T14:04:26;84.35;;;81.13;;
11771;SDS011;12556;55.748;13.194;2023-05-28T14:06:53;87.90;;;84.45;;
11771;SDS011;12556;55.748;13.194;2023-05-28T14:09:21;85.90;;;82.32;;
11771;SDS011;12556;55.748;13.194;2023-05-28T14:11:48;79.43;;;76.43;;
11771;SDS011;12556;55.748;13.194;2023-05-28T14:14:15;69.30;;;66.53;;
11771;SDS011;12556;55.748;13.194;2023-05-28T14:16:42;72.93;;;69.70;;
11771;SDS011;12556;55.748;13.194;2023-05-28T14:19:09;77.93;;;74.35;;
11771;SDS011;12556;55.748;13.194;2023-05-28T14:21:36;70.85;;;67.90;;
11771;SDS011;12556;55.748;13.194;2023-05-28T14:24:02;73.68;;;70.97;;
11771;SDS011;12556;55.748;13.194;2023-05-28T14:26:31;66.15;;;63.45;;